Angelica, NY

9:40 PM EDT on September 03, 2015 (GMT -0400)
Sunset Bay Rushford Lake | | Change Station
CLOSE
Current Station
Personal Weather Station
Location: Caneadea, NY
Elevation: 1490 ft
Nearby Weather Stations

Elev 1490 ft 42.39 °N, 78.19 °W | Updated 12 minutes ago

Clear
Clear
72.0 °F
Feels Like 72.0 °F
N
0.0
Wind Variable Wind from East

Today
High -- | Low -- °F
--% Chance of Precip.
Yesterday
High -- | Low -- °F
Precip. -- in
6:39 AM 7:43 PM
Waning Gibbous, 65% visible
Pressure 30.01 in
Visibility 8.0 miles
Clouds Clear
Dew Point 70 °F
Humidity 92%
Rainfall 0.00 in
Snow Depth Not available.
UV 0 out of 12
Pollen 10.10 out of 12
Air Quality Not available.
Flu Activity Not available.
METAR KELZ 040056Z AUTO 04004KT 8SM CLR 23/19 A3005 RMK AO2 SLP161 T02330189
Pressure 30.01 in
Visibility 8.0 miles
Clouds Clear
Dew Point 70 °F
Humidity 92%
Rainfall 0.00 in
Snow Depth Not available.
UV 0 out of 12
Pollen 10.10 out of 12
Air Quality Not available.
Flu Activity Not available.
METAR KELZ 040056Z AUTO 04004KT 8SM CLR 23/19 A3005 RMK AO2 SLP161 T02330189

10-Day Weather Forecast

×

Almanac

Astronomy

Sep. 03, 2015 Rise Set
Actual Time
Civil Twilight
Nautical Twilight
Astronomical Twilight
Moon
Length of Visible Light
Length of Day
Tomorrow will be .
, % of the Moon is Illuminated

Today's Extremes

State Highs State Lows

Community

WunderPhotos

Upload Photos

1,852,088 photos uploaded!

WunderBlogs® & News

Nearby

Air Quality

  Air Quality AQ Index Pollutant
Not available.

Snow Depth

Station Depth Elevation

Earthquake Activity

City Distance Mag. Time & Date
Minimum magnitude displayed is 2.5.

Coastal Water Temperatures

Place Temperature

Stations

Nearby Weather Stations

Station Location Temp. Windchill Dew Point Humidity Wind Precip. Elev Updated Type